AOK weather

Karpathos Airport
Karpathos Island, Dodecanese, Greece

Public forecast

Using degrees Celsius for public forecast. Weather courtesy of forecast.io.

METAR (pilot weather report)

Retrieved 2019/05/26 17:20 UTC (0 seconds ago):

LGKP 261720Z 28011KT CAVOK 21/17 Q1015

TAF (pilot weather forecast)

Forecast is more than 12 hours old.

Retrieved 2012/09/21 03:06 UTC (7 years ago):

TAF TAF LGKP 210200Z 2103/2115 29015KT 9999 FEW018